Chara, Russia
Current Conditions -  °F | °C
As of 11:30 AM on Tuesday 21 Oct 2014 (Local Time) from UIAA Reporting Station
Few Clouds Few Clouds  
Wind Chill: 16°   Ceiling: Unl
Heat Index: 16°   Visibility: 6mi
Dew Point:   Wind: 0mph
Humidity: 53%   Direction: NA
Pressure: 30.21"   Gusts: NA
Location:  56.91°N, 118.26°E
Report Text: UIAA 210230Z 00000MPS 9999 FEW200 M09/M17 Q1023 NOSIG RMKQFE708 29820260
Loading
Personal Weather Stations






























Interactive Weather Map
Tropical Storm Tracking
New forecast layout! Learn more

10-Day Weather Forecast

Advertisements
Track Severe Weather on mobile